createdAt,value
2022-09-25T00:31:57.824Z,13.52
2022-09-25T00:34:27.152Z,13.95
2022-09-25T00:37:20.548Z,13.23
2022-09-25T00:39:52.226Z,14.65
2022-09-25T00:42:27.136Z,14.60
2022-09-25T00:45:13.357Z,15.18
2022-09-25T00:51:02.923Z,14.02
2022-09-25T00:53:36.775Z,15.27
2022-09-25T01:05:26.471Z,12.77
2022-09-25T01:07:59.136Z,13.00
2022-09-25T01:10:33.392Z,14.00
2022-09-25T01:13:01.269Z,13.15
2022-09-25T01:15:43.167Z,12.60
2022-09-25T01:18:15.078Z,11.32
2022-09-25T01:21:05.716Z,12.88
2022-09-25T01:24:02.490Z,13.48
2022-09-25T01:26:43.286Z,13.18
2022-09-25T01:29:50.873Z,12.88
2022-09-25T01:32:50.797Z,12.98
2022-09-25T01:35:45.735Z,14.45
2022-09-25T01:38:47.598Z,12.57
2022-09-25T01:42:06.978Z,14.00
2022-09-25T01:44:45.560Z,13.23
2022-09-25T01:47:18.608Z,13.55
2022-09-25T01:50:26.606Z,15.20
2022-09-25T01:52:59.415Z,13.95
2022-09-25T02:02:10.501Z,14.10
2022-09-25T02:04:42.682Z,16.27
2022-09-25T02:07:16.664Z,16.08
2022-09-25T02:10:20.775Z,16.23
2022-09-25T02:12:52.116Z,14.27
2022-09-25T02:15:39.712Z,15.35
2022-09-25T02:18:31.498Z,15.43
2022-09-25T02:21:12.455Z,15.75
2022-09-25T02:23:57.944Z,15.38
2022-09-25T02:26:32.620Z,14.63
2022-09-25T02:29:31.570Z,16.65
2022-09-25T02:32:02.577Z,15.23
2022-09-25T02:34:32.577Z,14.55
2022-09-25T02:37:00.428Z,15.05
2022-09-25T02:40:02.355Z,14.90
2022-09-25T02:42:46.282Z,14.88
2022-09-25T02:46:10.335Z,14.90
2022-09-25T02:48:55.221Z,15.18
2022-09-25T02:51:45.420Z,17.05
2022-09-25T02:55:29.566Z,14.68
2022-09-25T02:58:09.043Z,15.82
2022-09-25T03:00:40.144Z,14.98
2022-09-25T03:03:12.294Z,15.93
2022-09-25T03:05:41.986Z,15.68
2022-09-25T03:11:29.016Z,14.23
2022-09-25T03:13:58.545Z,15.43
2022-09-25T03:16:39.533Z,15.65
2022-09-25T03:19:08.238Z,14.93
2022-09-25T03:21:36.262Z,15.52
2022-09-25T03:24:28.371Z,14.20
2022-09-25T03:26:56.292Z,15.38
2022-09-25T03:29:24.745Z,16.02
2022-09-25T03:31:52.415Z,14.88
2022-09-25T03:34:21.037Z,15.57
2022-09-25T03:37:19.608Z,16.52
2022-09-25T03:39:46.292Z,16.10
2022-09-25T03:42:26.311Z,15.95
2022-09-25T03:44:55.983Z,15.82
2022-09-25T03:50:20.446Z,17.75
2022-09-25T03:52:48.471Z,16.88
2022-09-25T03:55:16.358Z,16.63
2022-09-25T03:57:49.225Z,17.25
2022-09-25T04:00:17.802Z,17.85
2022-09-25T04:03:10.329Z,16.08
2022-09-25T04:05:39.286Z,16.70
2022-09-25T04:11:03.863Z,17.45
2022-09-25T04:13:41.703Z,16.88
2022-09-25T04:16:34.461Z,15.93
2022-09-25T04:19:02.249Z,17.35
2022-09-25T04:21:30.402Z,16.50
2022-09-25T04:24:16.977Z,15.73
2022-09-25T04:26:44.400Z,15.68
2022-09-25T04:29:15.654Z,15.05
2022-09-25T04:31:44.422Z,14.70
2022-09-25T04:34:43.353Z,14.63
2022-09-25T04:37:10.506Z,15.40
2022-09-25T04:39:43.420Z,15.00
2022-09-25T04:42:10.513Z,13.45
2022-09-25T04:44:38.165Z,14.45
2022-09-25T04:47:06.205Z,12.90
2022-09-25T04:49:39.500Z,14.07
2022-09-25T04:52:06.458Z,13.50
2022-09-25T04:54:34.194Z,13.50
2022-09-25T04:57:02.766Z,13.15
2022-09-25T04:59:30.312Z,14.43
2022-09-25T05:01:58.509Z,13.38
2022-09-25T05:04:26.328Z,14.70
2022-09-25T05:09:46.159Z,13.15
2022-09-25T05:12:18.483Z,15.15
2022-09-25T05:15:11.676Z,15.50
2022-09-25T05:17:42.061Z,13.60
2022-09-25T05:20:14.502Z,13.85
2022-09-25T05:22:42.190Z,15.55
2022-09-25T05:28:26.648Z,15.60
2022-09-25T05:30:54.807Z,17.33
2022-09-25T05:33:22.270Z,16.30
2022-09-25T05:38:46.555Z,15.15
2022-09-25T05:41:18.672Z,15.13
2022-09-25T05:43:47.876Z,16.00
2022-09-25T05:46:16.592Z,16.60
2022-09-25T05:48:44.489Z,17.83
2022-09-25T05:51:12.179Z,17.35
2022-09-25T05:53:41.190Z,18.92
2022-09-25T05:56:08.496Z,17.27
2022-09-25T05:58:36.443Z,19.05
2022-09-25T06:01:05.927Z,18.10
2022-09-25T06:03:34.585Z,16.35
2022-09-25T06:06:03.688Z,16.08
2022-09-25T06:08:33.369Z,17.23
2022-09-25T06:11:03.472Z,16.35
2022-09-25T06:13:35.010Z,16.40
2022-09-25T06:16:03.218Z,16.05
2022-09-25T06:18:30.207Z,15.65
2022-09-25T06:21:22.719Z,17.20
2022-09-25T06:23:50.245Z,15.90
2022-09-25T06:26:18.937Z,16.35
2022-09-25T06:28:46.261Z,17.65
2022-09-25T06:31:15.235Z,16.63
2022-09-25T06:33:43.832Z,15.73
2022-09-25T06:36:12.357Z,16.02
2022-09-25T06:38:42.064Z,16.85
2022-09-25T06:41:34.943Z,16.92
2022-09-25T06:44:28.730Z,15.55
2022-09-25T06:46:56.397Z,17.20
2022-09-25T06:49:24.451Z,16.65
2022-09-25T06:51:52.728Z,15.38
2022-09-25T06:54:20.243Z,15.18
2022-09-25T06:56:49.876Z,16.65
2022-09-25T06:59:18.308Z,16.23
2022-09-25T07:01:46.255Z,16.88
2022-09-25T08:05:39.934Z,9.98
2022-09-25T08:20:09.569Z,8.27
2022-09-25T09:24:30.073Z,7.97
2022-09-25T09:30:04.508Z,8.52
2022-09-25T09:32:45.695Z,8.82
2022-09-25T09:35:51.950Z,9.02
2022-09-25T09:38:44.257Z,9.45
2022-09-25T09:41:58.002Z,8.20
2022-09-25T09:45:11.658Z,8.73
2022-09-25T09:48:15.197Z,9.40
2022-09-25T09:51:30.938Z,8.63
2022-09-25T09:54:06.454Z,9.00
2022-09-25T09:56:44.442Z,9.15
2022-09-25T09:59:23.323Z,8.15
2022-09-25T10:02:13.190Z,9.00
2022-09-25T10:04:41.399Z,8.02
2022-09-25T10:07:12.692Z,7.97
2022-09-25T10:09:50.938Z,8.68
2022-09-25T10:12:39.137Z,7.72
2022-09-25T10:15:58.043Z,7.30
2022-09-25T10:18:35.738Z,7.80
2022-09-25T10:21:12.525Z,6.55
2022-09-25T10:23:46.896Z,7.10
2022-09-25T10:26:38.000Z,6.97
2022-09-25T10:29:27.341Z,7.20
2022-09-25T10:32:02.235Z,6.07
2022-09-25T10:34:31.898Z,7.00
2022-09-25T10:37:19.757Z,8.30
2022-09-25T10:40:02.252Z,7.97
2022-09-25T10:43:23.655Z,7.28
2022-09-25T10:46:14.758Z,8.02
2022-09-25T10:52:27.280Z,7.43
2022-09-25T10:55:14.731Z,7.28
2022-09-25T10:57:42.723Z,7.30
2022-09-25T11:08:06.773Z,7.57
2022-09-25T11:10:48.109Z,7.95
2022-09-25T11:13:27.974Z,7.50
2022-09-25T11:15:59.869Z,7.75
2022-09-25T11:18:45.532Z,7.50
2022-09-25T11:21:36.471Z,7.45
2022-09-25T11:27:53.398Z,6.57
2022-09-25T11:33:42.859Z,6.32
2022-09-25T11:36:24.943Z,5.45
2022-09-25T11:39:55.178Z,6.05
2022-09-25T11:42:36.178Z,6.43
2022-09-25T11:45:36.394Z,6.38
2022-09-25T11:48:12.920Z,6.00
2022-09-25T11:51:09.792Z,6.38
2022-09-25T11:53:44.308Z,6.38
2022-09-25T11:56:52.013Z,6.90
2022-09-25T12:00:07.742Z,7.50
2022-09-25T12:02:54.428Z,7.13
2022-09-25T12:05:49.249Z,7.50
2022-09-25T12:08:36.608Z,7.25
2022-09-25T12:11:22.433Z,6.75
2022-09-25T12:14:34.629Z,7.07
2022-09-25T12:17:20.994Z,5.68
2022-09-25T12:20:04.781Z,5.72
2022-09-25T12:22:52.118Z,5.60
2022-09-25T12:25:54.140Z,4.80
2022-09-25T12:28:48.379Z,5.82
2022-09-25T12:31:25.547Z,5.90
2022-09-25T12:34:20.640Z,5.18
2022-09-25T12:37:06.121Z,5.07
2022-09-25T12:39:37.313Z,4.80
2022-09-25T12:45:19.806Z,4.53
2022-09-25T12:47:51.360Z,4.32
2022-09-25T12:50:30.455Z,4.47
2022-09-25T12:53:23.311Z,4.93
2022-09-25T12:56:03.959Z,4.60
2022-09-25T13:02:21.385Z,4.70
2022-09-25T13:05:21.956Z,4.75
2022-09-25T13:08:29.556Z,4.60
2022-09-25T13:11:14.538Z,4.32
2022-09-25T13:16:45.300Z,4.90
2022-09-25T13:19:24.279Z,4.70
2022-09-25T13:21:59.591Z,4.57
2022-09-25T13:24:26.463Z,4.88
2022-09-25T13:26:59.018Z,5.30
2022-09-25T13:29:36.351Z,4.45
2022-09-25T13:32:19.875Z,4.78
2022-09-25T13:34:54.105Z,4.20
2022-09-25T13:37:27.645Z,4.50
2022-09-25T13:40:14.784Z,4.47
2022-09-25T13:42:46.163Z,4.00
2022-09-25T13:45:29.163Z,4.18
2022-09-25T13:47:58.975Z,4.07
2022-09-25T13:50:37.423Z,3.42
2022-09-25T13:53:39.787Z,3.83
2022-09-25T13:56:15.102Z,3.33
2022-09-25T13:59:19.305Z,3.17
2022-09-25T14:02:45.735Z,3.33
2022-09-25T14:05:21.578Z,2.97
2022-09-25T14:08:16.991Z,2.90
2022-09-25T14:10:46.840Z,3.20
2022-09-25T14:13:43.080Z,2.70
2022-09-25T14:16:19.994Z,2.97
2022-09-25T14:18:54.166Z,3.50
2022-09-25T14:21:22.959Z,3.17
2022-09-25T14:23:55.641Z,2.55
2022-09-25T14:26:26.497Z,2.80
2022-09-25T14:28:58.141Z,2.28
2022-09-25T14:31:32.499Z,2.25
2022-09-25T14:34:23.794Z,2.42
2022-09-25T14:37:29.448Z,2.38
2022-09-25T14:40:11.614Z,2.08
2022-09-25T14:43:29.708Z,2.33
2022-09-25T14:46:05.377Z,2.95
2022-09-25T14:51:43.543Z,2.30
2022-09-25T14:54:22.776Z,2.30
2022-09-25T14:56:55.561Z,2.25
2022-09-25T15:02:36.888Z,2.17
2022-09-25T15:05:33.089Z,2.65
2022-09-25T15:08:18.986Z,2.53
2022-09-25T15:10:46.143Z,2.42
2022-09-25T15:13:19.861Z,2.30
2022-09-25T15:16:16.191Z,2.22
2022-09-25T15:18:54.156Z,1.92
2022-09-25T15:21:30.880Z,2.47
2022-09-25T15:24:28.230Z,2.42
2022-09-25T15:27:06.728Z,1.73
2022-09-25T15:29:37.291Z,1.88
2022-09-25T15:32:39.973Z,2.25
2022-09-25T15:35:18.368Z,2.15
2022-09-25T15:37:47.164Z,2.78
2022-09-25T15:40:16.941Z,2.45
2022-09-25T15:42:48.552Z,2.58
2022-09-25T15:45:42.121Z,2.65
2022-09-25T15:48:20.749Z,2.88
2022-09-25T15:50:48.933Z,2.92
2022-09-25T15:53:29.237Z,2.97
2022-09-25T15:56:30.900Z,2.63
2022-09-25T15:59:02.598Z,2.60
2022-09-25T16:01:53.718Z,2.38
2022-09-25T16:04:49.660Z,2.35
2022-09-25T16:07:42.430Z,1.95
2022-09-25T16:10:10.388Z,1.92
2022-09-25T16:12:50.113Z,2.22
2022-09-25T16:15:27.349Z,2.10
2022-09-25T16:18:00.163Z,2.05
2022-09-25T16:20:36.760Z,2.15
2022-09-25T16:23:17.001Z,2.03
2022-09-25T16:25:45.004Z,2.80
2022-09-25T16:28:30.593Z,2.83
2022-09-25T16:31:02.932Z,2.30
2022-09-25T16:33:33.082Z,2.10
2022-09-25T16:36:16.842Z,1.80
2022-09-25T16:39:10.260Z,2.10
2022-09-25T16:41:43.147Z,1.98
2022-09-25T16:44:51.730Z,1.83
2022-09-25T16:47:21.057Z,1.70
2022-09-25T16:50:12.827Z,1.80
2022-09-25T16:52:43.255Z,1.75
2022-09-25T16:55:28.877Z,1.48
2022-09-25T16:57:58.896Z,1.40
2022-09-25T17:00:29.758Z,1.60
2022-09-25T17:02:58.438Z,1.73
2022-09-25T17:05:30.577Z,1.30
2022-09-25T17:08:06.457Z,1.33
2022-09-25T17:10:39.259Z,1.30
2022-09-25T17:13:06.227Z,2.15
2022-09-25T17:15:41.105Z,1.38
2022-09-25T17:18:16.521Z,1.42
2022-09-25T17:20:44.439Z,1.70
2022-09-25T17:23:19.421Z,1.45
2022-09-25T17:26:07.086Z,1.65
2022-09-25T17:28:34.123Z,1.63
2022-09-25T17:31:11.535Z,1.73
2022-09-25T17:33:40.163Z,1.67
2022-09-25T17:36:11.670Z,1.60
2022-09-25T17:38:40.402Z,1.85
2022-09-25T17:44:24.133Z,1.83
2022-09-25T17:46:55.597Z,1.77
2022-09-25T17:49:23.317Z,1.90
2022-09-25T17:52:20.478Z,2.22
2022-09-25T17:55:23.042Z,2.17
2022-09-25T17:57:50.215Z,1.95
2022-09-25T18:00:44.569Z,1.55
2022-09-25T18:03:14.037Z,1.95
2022-09-25T18:06:11.186Z,2.03
2022-09-25T18:08:38.537Z,2.15
2022-09-25T18:11:12.120Z,2.10
2022-09-25T18:13:41.823Z,2.33
2022-09-25T18:16:25.086Z,2.25
2022-09-25T18:19:10.781Z,1.95
2022-09-25T18:21:56.636Z,2.25
2022-09-25T18:24:30.399Z,2.00
2022-09-25T18:26:58.440Z,1.95
2022-09-25T18:29:26.196Z,2.40
2022-09-25T18:31:54.124Z,2.65
2022-09-25T18:34:22.801Z,2.70
2022-09-25T18:36:50.189Z,2.15
2022-09-25T18:39:20.457Z,2.25
2022-09-25T18:41:48.346Z,2.33
2022-09-25T18:44:23.466Z,2.50
2022-09-25T18:46:51.810Z,2.58
2022-09-25T18:49:20.185Z,2.30
2022-09-25T18:51:53.228Z,2.35
2022-09-25T18:54:46.321Z,2.40
2022-09-25T18:57:14.637Z,2.35
2022-09-25T18:59:42.173Z,2.60
2022-09-25T19:02:31.083Z,2.65
2022-09-25T19:04:58.655Z,2.47
2022-09-25T19:07:28.374Z,2.50
2022-09-25T19:09:58.174Z,2.85
2022-09-25T19:12:26.249Z,4.25
2022-09-25T19:14:59.153Z,5.95
2022-09-25T19:17:26.161Z,5.97
2022-09-25T19:22:46.161Z,4.82
2022-09-25T19:25:20.118Z,4.82
2022-09-25T19:27:54.155Z,3.80
2022-09-25T19:30:22.179Z,3.53
2022-09-25T19:32:50.902Z,2.90
2022-09-25T19:35:18.742Z,2.67
2022-09-25T19:37:46.187Z,2.72
2022-09-25T19:40:32.639Z,2.88
2022-09-25T19:43:01.151Z,2.50
2022-09-25T19:45:29.785Z,3.38
2022-09-25T19:48:03.165Z,2.13
2022-09-25T19:50:30.361Z,2.60
2022-09-25T19:53:04.950Z,2.90
2022-09-25T19:55:37.031Z,2.97
2022-09-25T19:58:36.827Z,2.85
2022-09-25T20:01:16.518Z,2.65
2022-09-25T20:03:49.779Z,2.90
2022-09-25T20:06:42.570Z,2.72
2022-09-25T20:09:11.594Z,2.53
2022-09-25T20:11:38.447Z,2.58
2022-09-25T20:14:07.458Z,2.83
2022-09-25T20:16:34.501Z,2.70
2022-09-25T20:19:07.630Z,2.75
2022-09-25T20:21:38.741Z,2.55
2022-09-25T20:24:07.605Z,2.70
2022-09-25T20:26:36.293Z,1.98
2022-09-25T20:29:13.976Z,2.33
2022-09-25T20:31:45.336Z,2.28
2022-09-25T20:34:20.273Z,2.53
2022-09-25T20:36:53.675Z,2.47
2022-09-25T20:39:22.685Z,2.17
2022-09-25T20:41:50.871Z,2.08
2022-09-25T20:44:18.148Z,2.40
2022-09-25T20:46:50.194Z,2.50
2022-09-25T20:49:20.213Z,3.15
2022-09-25T20:51:48.561Z,3.15
2022-09-25T20:54:16.138Z,3.45
2022-09-25T20:56:45.333Z,2.75
2022-09-25T20:59:12.588Z,3.00
2022-09-25T21:01:44.765Z,2.72
2022-09-25T21:04:18.343Z,3.03
2022-09-25T21:06:50.264Z,2.30
2022-09-25T21:09:25.376Z,2.75
2022-09-25T21:11:58.306Z,2.35
2022-09-25T21:14:28.283Z,3.42
2022-09-25T21:16:57.438Z,3.03
2022-09-25T21:19:27.918Z,2.72
2022-09-25T21:22:01.189Z,2.58
2022-09-25T21:24:28.537Z,3.20
2022-09-25T21:26:56.445Z,2.97
2022-09-25T21:29:24.117Z,2.90
2022-09-25T21:31:54.702Z,3.00
2022-09-25T21:34:28.191Z,2.67
2022-09-25T21:36:56.212Z,2.50
2022-09-25T21:39:29.031Z,2.67
2022-09-25T21:41:56.149Z,2.55
2022-09-25T21:44:25.786Z,2.97
2022-09-25T21:46:54.336Z,3.22
2022-09-25T21:49:26.616Z,3.03
2022-09-25T21:51:54.379Z,3.22
2022-09-25T21:54:22.518Z,3.20
2022-09-25T21:56:50.182Z,4.28
2022-09-25T21:59:18.246Z,2.47
2022-09-25T22:04:42.427Z,3.17
2022-09-25T22:07:14.150Z,3.00
2022-09-25T22:09:42.401Z,3.35
2022-09-25T22:12:10.412Z,3.65
2022-09-25T22:14:42.193Z,3.17
2022-09-25T22:17:10.233Z,3.47
2022-09-25T22:19:43.319Z,2.92
2022-09-25T22:22:10.157Z,3.25
2022-09-25T22:24:38.196Z,3.30
2022-09-25T22:27:11.224Z,3.25
2022-09-25T22:29:38.150Z,3.17
2022-09-25T22:32:06.136Z,3.25
2022-09-25T22:34:34.156Z,3.45
2022-09-25T22:37:06.209Z,3.05
2022-09-25T22:39:34.119Z,2.95
2022-09-25T22:42:02.235Z,2.72
2022-09-25T22:44:30.248Z,3.08
2022-09-25T22:47:02.406Z,3.50
2022-09-25T22:49:32.131Z,2.85
2022-09-25T22:52:00.261Z,2.85
2022-09-25T22:54:28.184Z,3.33
2022-09-25T22:57:25.171Z,2.95
2022-09-25T22:59:52.224Z,3.35
2022-09-25T23:02:20.439Z,3.17
2022-09-25T23:04:49.472Z,3.28
2022-09-25T23:07:16.134Z,3.13
2022-09-25T23:09:44.188Z,3.45
2022-09-25T23:12:12.111Z,3.25
2022-09-25T23:17:32.183Z,4.13
2022-09-25T23:20:00.262Z,3.90
2022-09-25T23:22:32.218Z,4.25
2022-09-25T23:25:00.164Z,3.90
2022-09-25T23:27:33.237Z,3.38
2022-09-25T23:30:00.167Z,3.60
2022-09-25T23:32:28.125Z,3.60
2022-09-25T23:34:56.161Z,3.10
2022-09-25T23:37:24.310Z,3.45
2022-09-25T23:39:56.176Z,3.75
2022-09-25T23:42:24.140Z,2.85
2022-09-25T23:45:21.153Z,3.45
2022-09-25T23:47:48.153Z,3.30
2022-09-25T23:50:16.244Z,3.15
2022-09-25T23:52:44.136Z,2.78
2022-09-25T23:55:12.163Z,3.00
2022-09-25T23:57:40.174Z,2.50
